createdAt,value
2023-05-19T00:00:05.870Z,0.68
2023-05-19T00:01:05.940Z,0.68
2023-05-19T00:02:06.136Z,0.68
2023-05-19T00:03:06.131Z,0.67
2023-05-19T00:04:06.063Z,0.68
2023-05-19T00:05:06.119Z,0.68
2023-05-19T00:06:06.205Z,0.68
2023-05-19T00:07:06.208Z,0.67
2023-05-19T00:08:06.243Z,0.67
2023-05-19T00:09:06.290Z,0.67
2023-05-19T00:10:06.469Z,0.67
2023-05-19T00:11:06.425Z,0.68
2023-05-19T00:12:06.437Z,0.67
2023-05-19T00:13:06.486Z,0.67
2023-05-19T00:14:06.533Z,0.68
2023-05-19T00:15:06.571Z,0.67
2023-05-19T00:16:06.727Z,0.68
2023-05-19T00:17:06.691Z,0.69
2023-05-19T00:18:06.845Z,0.68
2023-05-19T00:19:06.871Z,0.69
2023-05-19T00:20:06.836Z,0.68
2023-05-19T00:21:06.896Z,0.67
2023-05-19T00:22:06.926Z,0.68
2023-05-19T00:23:06.987Z,0.68
2023-05-19T00:24:07.032Z,0.68
2023-05-19T00:25:07.081Z,0.68
2023-05-19T00:26:07.136Z,0.68
2023-05-19T00:27:07.170Z,0.68
2023-05-19T00:28:07.241Z,0.68
2023-05-19T00:29:07.271Z,0.68
2023-05-19T00:30:07.349Z,0.68
2023-05-19T00:31:07.387Z,0.68
2023-05-19T00:32:07.486Z,0.68
2023-05-19T00:33:07.529Z,0.68
2023-05-19T00:34:07.520Z,0.68
2023-05-19T00:35:07.575Z,0.68
2023-05-19T00:36:07.634Z,0.68
2023-05-19T00:37:07.713Z,0.68
2023-05-19T00:38:07.727Z,0.68
2023-05-19T00:39:07.772Z,0.68
2023-05-19T00:40:07.825Z,0.68
2023-05-19T00:41:07.874Z,0.68
2023-05-19T00:42:07.930Z,0.69
2023-05-19T00:43:07.978Z,0.67
2023-05-19T00:44:08.018Z,0.69
2023-05-19T00:45:08.052Z,0.69
2023-05-19T00:46:08.191Z,0.68
2023-05-19T00:47:08.337Z,0.69
2023-05-19T00:48:08.230Z,0.68
2023-05-19T00:49:08.263Z,0.68
2023-05-19T00:50:08.320Z,0.68
2023-05-19T00:51:08.368Z,0.68
2023-05-19T00:52:08.416Z,0.68
2023-05-19T00:53:08.472Z,0.69
2023-05-19T00:54:08.530Z,0.69
2023-05-19T00:55:08.586Z,0.68
2023-05-19T00:56:08.662Z,0.69
2023-05-19T00:57:08.644Z,0.69
2023-05-19T00:58:08.659Z,0.69
2023-05-19T00:59:08.681Z,0.69
2023-05-19T01:00:08.687Z,0.69
2023-05-19T01:01:08.727Z,0.69
2023-05-19T01:02:08.699Z,0.70
2023-05-19T01:03:08.748Z,0.70
2023-05-19T01:04:08.811Z,0.70
2023-05-19T01:05:08.724Z,0.70
2023-05-19T01:06:08.739Z,0.70
2023-05-19T01:07:08.823Z,0.69
2023-05-19T01:08:08.768Z,0.69
2023-05-19T01:09:08.767Z,0.69
2023-05-19T01:10:08.777Z,0.69
2023-05-19T01:11:08.831Z,0.69
2023-05-19T01:12:08.829Z,0.68
2023-05-19T01:13:08.835Z,0.69
2023-05-19T01:14:08.850Z,0.69
2023-05-19T01:15:08.863Z,0.70
2023-05-19T01:16:08.994Z,0.70
2023-05-19T01:17:08.890Z,0.70
2023-05-19T01:18:08.922Z,0.70
2023-05-19T01:19:08.961Z,0.70
2023-05-19T01:20:08.928Z,0.71
2023-05-19T01:21:08.936Z,0.71
2023-05-19T01:22:08.970Z,0.70
2023-05-19T01:23:08.985Z,0.70
2023-05-19T01:24:09.005Z,0.69
2023-05-19T01:25:09.030Z,0.70
2023-05-19T01:26:09.041Z,0.70
2023-05-19T01:27:09.068Z,0.70
2023-05-19T01:28:09.074Z,0.69
2023-05-19T01:29:09.097Z,0.69
2023-05-19T01:30:09.115Z,0.70
2023-05-19T01:31:09.161Z,0.69
2023-05-19T01:32:09.262Z,0.69
2023-05-19T01:33:09.384Z,0.70
2023-05-19T01:34:09.239Z,0.70
2023-05-19T01:35:09.270Z,0.70
2023-05-19T01:36:09.267Z,0.70
2023-05-19T01:37:09.272Z,0.70
2023-05-19T01:38:09.292Z,0.70
2023-05-19T01:39:09.306Z,0.70
2023-05-19T01:40:09.294Z,0.70
2023-05-19T01:41:09.309Z,0.69
2023-05-19T01:42:09.310Z,0.69
2023-05-19T01:43:09.310Z,0.71
2023-05-19T01:44:09.312Z,0.70
2023-05-19T01:45:09.334Z,0.69
2023-05-19T01:46:09.433Z,0.70
2023-05-19T01:47:09.427Z,0.69
2023-05-19T01:48:11.096Z,0.69
2023-05-19T01:49:09.538Z,0.70
2023-05-19T01:50:09.588Z,0.69
2023-05-19T01:51:09.657Z,0.70
2023-05-19T01:52:09.723Z,0.70
2023-05-19T01:53:09.774Z,0.69
2023-05-19T01:54:09.833Z,0.70
2023-05-19T01:55:09.909Z,0.70
2023-05-19T01:56:10.002Z,0.69
2023-05-19T01:57:10.028Z,0.70
2023-05-19T01:58:10.076Z,0.69
2023-05-19T01:59:10.146Z,0.70
2023-05-19T02:00:10.213Z,0.68
2023-05-19T02:01:10.300Z,0.70
2023-05-19T02:02:10.332Z,0.70
2023-05-19T02:03:10.398Z,0.70
2023-05-19T02:04:10.514Z,0.70
2023-05-19T02:05:10.537Z,0.70
2023-05-19T02:06:10.587Z,0.69
2023-05-19T02:07:10.647Z,0.69
2023-05-19T02:08:10.716Z,0.69
2023-05-19T02:09:10.793Z,0.69
2023-05-19T02:10:10.871Z,0.69
2023-05-19T02:11:10.897Z,0.69
2023-05-19T02:12:10.948Z,0.69
2023-05-19T02:13:11.018Z,0.69
2023-05-19T02:14:11.078Z,0.69
2023-05-19T02:15:11.143Z,0.69
2023-05-19T02:16:11.248Z,0.69
2023-05-19T02:17:11.287Z,0.70
2023-05-19T02:18:11.324Z,0.69
2023-05-19T02:19:11.413Z,0.70
2023-05-19T02:20:11.444Z,0.70
2023-05-19T02:21:11.517Z,0.69
2023-05-19T02:22:11.599Z,0.69
2023-05-19T02:23:11.654Z,0.69
2023-05-19T02:24:11.730Z,0.69
2023-05-19T02:25:11.798Z,0.70
2023-05-19T02:26:11.837Z,0.69
2023-05-19T02:27:11.910Z,0.70
2023-05-19T02:28:11.977Z,0.69
2023-05-19T02:29:12.043Z,0.70
2023-05-19T02:30:12.107Z,0.69
2023-05-19T02:31:12.166Z,0.70
2023-05-19T02:32:12.319Z,0.70
2023-05-19T02:33:12.299Z,0.69
2023-05-19T02:34:12.356Z,0.69
2023-05-19T02:35:12.422Z,0.69
2023-05-19T02:36:12.501Z,0.70
2023-05-19T02:37:12.534Z,0.69
2023-05-19T02:38:12.598Z,0.69
2023-05-19T02:39:12.682Z,0.70
2023-05-19T02:40:12.727Z,0.68
2023-05-19T02:41:12.793Z,0.70
2023-05-19T02:42:12.851Z,0.69
2023-05-19T02:43:12.914Z,0.69
2023-05-19T02:44:12.918Z,0.69
2023-05-19T02:45:12.932Z,0.69
2023-05-19T02:46:12.965Z,0.69
2023-05-19T02:47:12.949Z,0.70
2023-05-19T02:48:12.998Z,0.69
2023-05-19T02:49:12.976Z,0.70
2023-05-19T02:50:12.998Z,0.71
2023-05-19T02:51:13.013Z,0.69
2023-05-19T02:52:13.040Z,0.69
2023-05-19T02:53:13.040Z,0.70
2023-05-19T02:54:13.057Z,0.69
2023-05-19T02:55:13.108Z,0.69
2023-05-19T02:56:13.283Z,0.69
2023-05-19T02:57:13.215Z,0.69
2023-05-19T02:58:13.286Z,0.69
2023-05-19T02:59:13.358Z,0.69
2023-05-19T03:00:13.419Z,0.69
2023-05-19T03:01:13.498Z,0.69
2023-05-19T03:02:13.606Z,0.69
2023-05-19T03:03:13.708Z,0.70
2023-05-19T03:04:13.679Z,0.70
2023-05-19T03:05:13.770Z,0.69
2023-05-19T03:06:13.837Z,0.70
2023-05-19T03:07:13.909Z,0.68
2023-05-19T03:08:13.979Z,0.70
2023-05-19T03:09:14.029Z,0.69
2023-05-19T03:10:14.088Z,0.69
2023-05-19T03:11:14.172Z,0.69
2023-05-19T03:12:14.166Z,0.69
2023-05-19T03:13:14.171Z,0.69
2023-05-19T03:14:14.207Z,0.69
2023-05-19T03:15:14.192Z,0.70
2023-05-19T03:16:14.276Z,0.70
2023-05-19T03:17:14.265Z,0.70
2023-05-19T03:18:14.270Z,0.70
2023-05-19T03:19:14.306Z,0.70
2023-05-19T03:20:14.273Z,0.70
2023-05-19T03:21:14.285Z,0.69
2023-05-19T03:22:14.307Z,0.69
2023-05-19T03:23:14.316Z,0.69
2023-05-19T03:24:14.327Z,0.70
2023-05-19T03:25:14.353Z,0.70
2023-05-19T03:26:14.361Z,0.70
2023-05-19T03:27:14.377Z,0.71
2023-05-19T03:28:14.364Z,0.70
2023-05-19T03:29:14.395Z,0.70
2023-05-19T03:30:14.397Z,0.70
2023-05-19T03:31:14.537Z,0.70
2023-05-19T03:32:14.452Z,0.70
2023-05-19T03:33:14.582Z,0.71
2023-05-19T03:34:14.453Z,0.71
2023-05-19T03:35:14.483Z,0.70
2023-05-19T03:36:14.507Z,0.69
2023-05-19T03:37:14.507Z,0.70
2023-05-19T03:38:14.521Z,0.70
2023-05-19T03:39:14.536Z,0.70
2023-05-19T03:40:14.540Z,0.71
2023-05-19T03:41:14.619Z,0.70
2023-05-19T03:42:14.606Z,0.69
2023-05-19T03:43:14.691Z,0.71
2023-05-19T03:44:14.743Z,0.70
2023-05-19T03:45:14.836Z,0.69
2023-05-19T03:46:14.953Z,0.72
2023-05-19T03:47:14.894Z,0.72
2023-05-19T03:48:14.903Z,0.71
2023-05-19T03:49:14.953Z,0.72
2023-05-19T03:50:14.954Z,0.70
2023-05-19T03:51:14.975Z,0.69
2023-05-19T03:52:15.025Z,0.70
2023-05-19T03:53:15.019Z,0.70
2023-05-19T03:54:15.048Z,0.70
2023-05-19T03:55:15.060Z,0.69
2023-05-19T03:56:15.082Z,0.69
2023-05-19T03:57:15.111Z,0.71
2023-05-19T03:58:15.127Z,0.70
2023-05-19T03:59:15.145Z,0.70
2023-05-19T04:00:15.187Z,0.70
2023-05-19T04:01:15.196Z,0.70
2023-05-19T04:02:16.507Z,0.70
2023-05-19T04:03:15.327Z,0.70
2023-05-19T04:04:15.313Z,0.71
2023-05-19T04:05:15.260Z,0.70
2023-05-19T04:06:15.274Z,0.70
2023-05-19T04:07:15.288Z,0.70
2023-05-19T04:08:15.308Z,0.70
2023-05-19T04:09:15.346Z,0.69
2023-05-19T04:10:15.355Z,0.70
2023-05-19T04:11:15.413Z,0.70
2023-05-19T04:12:15.435Z,0.69
2023-05-19T04:13:15.495Z,0.69
2023-05-19T04:14:15.555Z,0.69
2023-05-19T04:15:15.627Z,0.69
2023-05-19T04:16:15.750Z,0.69
2023-05-19T04:17:15.765Z,0.69
2023-05-19T04:18:15.835Z,0.69
2023-05-19T04:19:15.931Z,0.69
2023-05-19T04:20:15.969Z,0.68
2023-05-19T04:21:16.048Z,0.69
2023-05-19T04:22:16.064Z,0.69
2023-05-19T04:23:16.120Z,0.70
2023-05-19T04:24:16.109Z,0.70
2023-05-19T04:25:16.141Z,0.70
2023-05-19T04:26:16.153Z,0.70
2023-05-19T04:27:16.185Z,0.69
2023-05-19T04:28:16.202Z,0.69
2023-05-19T04:29:16.226Z,0.69
2023-05-19T04:30:18.309Z,0.70
2023-05-19T04:31:16.339Z,0.68
2023-05-19T04:32:16.272Z,0.69
2023-05-19T04:33:16.332Z,0.70
2023-05-19T04:34:16.404Z,0.70
2023-05-19T04:35:16.413Z,0.70
2023-05-19T04:36:16.434Z,0.70
2023-05-19T04:37:16.454Z,0.70
2023-05-19T04:38:16.448Z,0.69
2023-05-19T04:39:16.479Z,0.69
2023-05-19T04:40:16.476Z,0.69
2023-05-19T04:41:16.532Z,0.69
2023-05-19T04:42:16.521Z,0.70
2023-05-19T04:43:16.522Z,0.69
2023-05-19T04:44:16.531Z,0.70
2023-05-19T04:45:16.554Z,0.69
2023-05-19T04:46:16.628Z,0.70
2023-05-19T04:47:16.675Z,0.68
2023-05-19T04:48:16.736Z,0.68
2023-05-19T04:49:16.810Z,0.69
2023-05-19T04:50:16.935Z,0.69
2023-05-19T04:51:16.948Z,0.69
2023-05-19T04:52:17.010Z,0.69
2023-05-19T04:53:17.081Z,0.68
2023-05-19T04:54:17.148Z,0.69
2023-05-19T04:55:17.251Z,0.69
2023-05-19T04:56:17.298Z,0.68
2023-05-19T04:57:17.389Z,0.69
2023-05-19T04:58:17.437Z,0.69
2023-05-19T04:59:17.491Z,0.68
2023-05-19T05:00:17.551Z,0.69
2023-05-19T05:01:17.677Z,0.70
2023-05-19T05:02:17.716Z,0.68
2023-05-19T05:03:17.926Z,0.68
2023-05-19T05:04:17.824Z,0.68
2023-05-19T05:05:17.876Z,0.68
2023-05-19T05:06:17.936Z,0.68
2023-05-19T05:07:17.997Z,0.69
2023-05-19T05:08:18.057Z,0.69
2023-05-19T05:09:18.134Z,0.68
2023-05-19T05:10:18.198Z,0.69
2023-05-19T05:11:18.282Z,0.68
2023-05-19T05:12:18.319Z,0.67
2023-05-19T05:13:18.384Z,0.68
2023-05-19T05:14:18.462Z,0.68
2023-05-19T05:15:18.518Z,0.67
2023-05-19T05:16:18.661Z,0.67
2023-05-19T05:17:18.649Z,0.69
2023-05-19T05:18:18.726Z,0.67
2023-05-19T05:19:18.837Z,0.68
2023-05-19T05:20:18.863Z,0.67
2023-05-19T05:21:18.913Z,0.68
2023-05-19T05:22:18.987Z,0.68
2023-05-19T05:23:19.110Z,0.68
2023-05-19T05:24:19.109Z,0.67
2023-05-19T05:25:19.167Z,0.67
2023-05-19T05:26:19.258Z,0.68
2023-05-19T05:27:19.313Z,0.67
2023-05-19T05:28:19.370Z,0.68
2023-05-19T05:29:19.429Z,0.67
2023-05-19T05:30:19.496Z,0.67
2023-05-19T05:31:19.559Z,0.67
2023-05-19T05:32:19.652Z,0.67
2023-05-19T05:33:19.830Z,0.68
2023-05-19T05:34:19.751Z,0.66
2023-05-19T05:35:19.804Z,0.67
2023-05-19T05:36:19.873Z,0.68
2023-05-19T05:37:19.959Z,0.68
2023-05-19T05:38:20.009Z,0.67
2023-05-19T05:39:20.074Z,0.69
2023-05-19T05:40:20.131Z,0.67
2023-05-19T05:41:20.189Z,0.68
2023-05-19T05:42:20.257Z,0.68
2023-05-19T05:43:20.311Z,0.67
2023-05-19T05:44:20.395Z,0.67
2023-05-19T05:45:20.410Z,0.67
2023-05-19T05:46:20.460Z,0.67
2023-05-19T05:47:20.441Z,0.68
2023-05-19T05:48:20.465Z,0.67
2023-05-19T05:49:20.476Z,0.67
2023-05-19T05:50:20.493Z,0.68
2023-05-19T05:51:20.515Z,0.67
2023-05-19T05:52:20.531Z,0.66
2023-05-19T05:53:20.553Z,0.67
2023-05-19T05:54:20.557Z,0.67
2023-05-19T05:55:20.589Z,0.68
2023-05-19T05:56:20.670Z,0.66
2023-05-19T05:57:20.659Z,0.67
2023-05-19T05:58:20.728Z,0.67
2023-05-19T05:59:20.801Z,0.66
2023-05-19T06:00:20.872Z,0.67
2023-05-19T06:01:20.989Z,0.66
2023-05-19T06:02:21.091Z,0.65
2023-05-19T06:03:21.168Z,0.66
2023-05-19T06:04:21.275Z,0.67
2023-05-19T06:05:21.222Z,0.66
2023-05-19T06:06:21.286Z,0.66
2023-05-19T06:07:21.336Z,0.66
2023-05-19T06:08:21.396Z,0.66
2023-05-19T06:09:21.490Z,0.67
2023-05-19T06:10:21.543Z,0.67
2023-05-19T06:11:21.597Z,0.67
2023-05-19T06:12:21.675Z,0.66
2023-05-19T06:13:21.721Z,0.66
2023-05-19T06:14:21.818Z,0.67
2023-05-19T06:15:21.859Z,0.66
2023-05-19T06:16:21.888Z,0.66
2023-05-19T06:17:21.872Z,0.66
2023-05-19T06:18:21.890Z,0.66
2023-05-19T06:19:22.042Z,0.66
2023-05-19T06:20:21.929Z,0.67
2023-05-19T06:21:21.938Z,0.66
2023-05-19T06:22:21.946Z,0.66
2023-05-19T06:23:21.968Z,0.66
2023-05-19T06:24:21.977Z,0.66
2023-05-19T06:25:21.997Z,0.65
2023-05-19T06:26:22.029Z,0.65
2023-05-19T06:27:22.063Z,0.66
2023-05-19T06:28:22.161Z,0.66
2023-05-19T06:29:22.171Z,0.66
2023-05-19T06:30:22.227Z,0.65
2023-05-19T06:31:22.450Z,0.66
2023-05-19T06:32:22.467Z,0.66
2023-05-19T06:33:22.450Z,0.65
2023-05-19T06:34:22.499Z,0.65
2023-05-19T06:35:22.568Z,0.67
2023-05-19T06:36:22.670Z,0.66
2023-05-19T06:37:22.682Z,0.66
2023-05-19T06:38:22.761Z,0.67
2023-05-19T06:39:22.820Z,0.65
2023-05-19T06:40:22.890Z,0.65
2023-05-19T06:41:22.968Z,0.66
2023-05-19T06:42:23.094Z,0.66
2023-05-19T06:43:23.085Z,0.65
2023-05-19T06:44:23.138Z,0.66
2023-05-19T06:45:23.206Z,0.65
2023-05-19T06:46:23.326Z,0.66
2023-05-19T06:47:23.378Z,0.65
2023-05-19T06:48:23.391Z,0.65
2023-05-19T06:49:23.470Z,0.66
2023-05-19T06:50:23.535Z,0.65
2023-05-19T06:51:23.607Z,0.65
2023-05-19T06:52:23.657Z,0.65
2023-05-19T06:53:23.706Z,0.65
2023-05-19T06:54:23.778Z,0.66
2023-05-19T06:55:23.841Z,0.65
2023-05-19T06:56:23.914Z,0.65
2023-05-19T06:57:23.961Z,0.64
2023-05-19T06:58:24.022Z,0.65
2023-05-19T06:59:24.089Z,0.65
2023-05-19T07:00:24.337Z,0.64
2023-05-19T07:01:24.254Z,0.65
2023-05-19T07:02:24.255Z,0.65
2023-05-19T07:03:24.422Z,0.64
2023-05-19T07:04:24.345Z,0.64
2023-05-19T07:05:24.389Z,0.65
2023-05-19T07:06:24.413Z,0.64
2023-05-19T07:07:24.417Z,0.65
2023-05-19T07:08:24.437Z,0.64
2023-05-19T07:09:24.450Z,0.65
2023-05-19T07:10:24.473Z,0.64
2023-05-19T07:11:24.508Z,0.65
2023-05-19T07:12:24.516Z,0.65
2023-05-19T07:13:26.641Z,0.65
2023-05-19T07:14:24.559Z,0.65
2023-05-19T07:15:24.580Z,0.65
2023-05-19T07:16:24.626Z,0.65
2023-05-19T07:17:24.688Z,0.65
2023-05-19T07:18:24.601Z,0.65
2023-05-19T07:19:24.680Z,0.64
2023-05-19T07:20:24.649Z,0.65
2023-05-19T07:21:24.654Z,0.64
2023-05-19T07:22:24.680Z,0.65
2023-05-19T07:23:24.669Z,0.64
2023-05-19T07:24:24.724Z,0.65
2023-05-19T07:25:24.712Z,0.65
2023-05-19T07:26:24.717Z,0.64
2023-05-19T07:27:24.744Z,0.64
2023-05-19T07:28:24.754Z,0.65
2023-05-19T07:29:24.748Z,0.64
2023-05-19T07:30:24.800Z,0.64
2023-05-19T07:31:24.855Z,0.64
2023-05-19T07:32:24.994Z,0.64
2023-05-19T07:33:24.974Z,0.64
2023-05-19T07:34:24.993Z,0.64
2023-05-19T07:35:25.034Z,0.63
2023-05-19T07:36:25.090Z,0.63
2023-05-19T07:37:25.132Z,0.64
2023-05-19T07:38:25.181Z,0.64
2023-05-19T07:39:25.297Z,0.65
2023-05-19T07:40:25.290Z,0.65
2023-05-19T07:41:25.324Z,0.65
2023-05-19T07:42:25.381Z,0.65
2023-05-19T07:43:25.427Z,0.64
2023-05-19T07:44:25.505Z,0.64
2023-05-19T07:45:25.519Z,0.64
2023-05-19T07:46:25.718Z,0.64
2023-05-19T07:47:25.799Z,0.63
2023-05-19T07:48:25.731Z,0.65
2023-05-19T07:49:25.703Z,0.63
2023-05-19T07:50:25.767Z,0.64
2023-05-19T07:51:25.846Z,0.63
2023-05-19T07:52:25.859Z,0.64
2023-05-19T07:53:25.926Z,0.64
2023-05-19T07:54:25.965Z,0.63
2023-05-19T07:55:25.994Z,0.63
2023-05-19T07:56:26.050Z,0.63
2023-05-19T07:57:26.100Z,0.63
2023-05-19T07:58:26.148Z,0.62
2023-05-19T07:59:26.212Z,0.63
2023-05-19T08:00:26.237Z,0.63
2023-05-19T08:01:26.289Z,0.63
2023-05-19T08:02:26.420Z,0.62
2023-05-19T08:03:26.534Z,0.63
2023-05-19T08:04:26.459Z,0.62
2023-05-19T08:05:26.493Z,0.62
2023-05-19T08:06:26.523Z,0.63
2023-05-19T08:07:26.556Z,0.62
2023-05-19T08:08:26.622Z,0.63
2023-05-19T08:09:26.666Z,0.63
2023-05-19T08:10:26.790Z,0.62
2023-05-19T08:11:26.737Z,0.62
2023-05-19T08:12:26.792Z,0.62
2023-05-19T08:13:26.815Z,0.62
2023-05-19T08:14:26.925Z,0.63
2023-05-19T08:15:26.963Z,0.62
2023-05-19T08:16:27.062Z,0.61
2023-05-19T08:17:27.228Z,0.62
2023-05-19T08:18:27.034Z,0.63
2023-05-19T08:19:27.149Z,0.62
2023-05-19T08:20:27.145Z,0.62
2023-05-19T08:21:27.173Z,0.61
2023-05-19T08:22:27.242Z,0.62
2023-05-19T08:23:27.263Z,0.62
2023-05-19T08:24:27.305Z,0.62
2023-05-19T08:25:27.357Z,0.60
2023-05-19T08:26:27.407Z,0.60
2023-05-19T08:27:27.454Z,0.60
2023-05-19T08:28:27.477Z,0.60
2023-05-19T08:29:27.514Z,0.60
2023-05-19T08:30:27.599Z,0.59
2023-05-19T08:31:27.602Z,0.60
2023-05-19T08:32:27.675Z,0.59
2023-05-19T08:33:27.672Z,0.59
2023-05-19T08:34:27.706Z,0.59
2023-05-19T08:35:27.741Z,0.58
2023-05-19T08:36:27.801Z,0.57
2023-05-19T08:37:27.823Z,0.56
2023-05-19T08:38:27.917Z,0.57
2023-05-19T08:39:27.919Z,0.57
2023-05-19T08:40:27.952Z,0.56
2023-05-19T08:41:28.004Z,0.57
2023-05-19T08:42:28.045Z,0.56
2023-05-19T08:43:28.107Z,0.55
2023-05-19T08:44:28.069Z,0.55
2023-05-19T08:45:28.087Z,0.55
2023-05-19T08:46:28.096Z,0.56
2023-05-19T08:47:28.148Z,0.56
2023-05-19T08:48:28.127Z,0.55
2023-05-19T08:49:28.154Z,0.55
2023-05-19T08:50:28.161Z,0.56
2023-05-19T08:51:28.222Z,0.56
2023-05-19T08:52:28.198Z,0.57
2023-05-19T08:53:33.795Z,0.57
2023-05-19T08:54:29.207Z,0.57
2023-05-19T08:55:28.221Z,0.57
2023-05-19T08:56:28.280Z,0.56
2023-05-19T08:57:28.235Z,0.57
2023-05-19T08:58:28.791Z,0.57
2023-05-19T08:59:28.271Z,0.57
2023-05-19T09:00:28.272Z,0.56
2023-05-19T09:01:28.311Z,0.56
2023-05-19T09:02:28.356Z,0.56
2023-05-19T09:03:28.407Z,0.56
2023-05-19T09:04:29.830Z,0.56
2023-05-19T09:05:28.423Z,0.56
2023-05-19T09:06:28.350Z,0.56
2023-05-19T09:07:28.374Z,0.56
2023-05-19T09:08:28.366Z,0.56
2023-05-19T09:09:28.374Z,0.56
2023-05-19T09:10:29.190Z,0.56
2023-05-19T09:11:28.395Z,0.57
2023-05-19T09:12:28.429Z,0.57
2023-05-19T09:13:28.427Z,0.58
2023-05-19T09:14:28.463Z,0.58
2023-05-19T09:15:28.468Z,0.57
2023-05-19T09:16:30.066Z,0.57
2023-05-19T09:17:28.513Z,0.57
2023-05-19T09:18:28.507Z,0.58
2023-05-19T09:19:28.638Z,0.58
2023-05-19T09:20:28.518Z,0.58
2023-05-19T09:21:28.553Z,0.59
2023-05-19T09:22:28.544Z,0.59
2023-05-19T09:23:28.535Z,0.59
2023-05-19T09:24:28.565Z,0.59
2023-05-19T09:25:28.565Z,0.59
2023-05-19T09:26:28.584Z,0.59
2023-05-19T09:27:28.634Z,0.59
2023-05-19T09:28:28.626Z,0.59
2023-05-19T09:29:28.626Z,0.60
2023-05-19T09:30:28.627Z,0.60
2023-05-19T09:31:28.657Z,0.60
2023-05-19T09:32:28.731Z,0.60
2023-05-19T09:33:28.703Z,0.60
2023-05-19T09:34:28.682Z,0.60
2023-05-19T09:35:28.699Z,0.60
2023-05-19T09:36:28.703Z,0.60
2023-05-19T09:37:28.721Z,0.60
2023-05-19T09:38:28.724Z,0.60
2023-05-19T09:39:28.757Z,0.61
2023-05-19T09:40:28.756Z,0.60
2023-05-19T09:41:28.769Z,0.60
2023-05-19T09:42:28.816Z,0.60
2023-05-19T09:43:28.796Z,0.60
2023-05-19T09:44:28.871Z,0.59
2023-05-19T09:45:28.839Z,0.61
2023-05-19T09:46:28.936Z,0.59
2023-05-19T09:47:28.891Z,0.60
2023-05-19T09:48:28.874Z,0.60
2023-05-19T09:49:28.901Z,0.60
2023-05-19T09:50:28.905Z,0.60
2023-05-19T09:51:28.905Z,0.60
2023-05-19T09:52:28.946Z,0.61
2023-05-19T09:53:28.936Z,0.60
2023-05-19T09:54:28.953Z,0.60
2023-05-19T09:55:28.958Z,0.60
2023-05-19T09:56:28.987Z,0.60
2023-05-19T09:57:28.996Z,0.60
2023-05-19T09:58:29.005Z,0.60
2023-05-19T09:59:31.334Z,0.60
2023-05-19T10:00:29.009Z,0.60
2023-05-19T10:01:29.080Z,0.60
2023-05-19T10:02:29.072Z,0.60
2023-05-19T10:03:29.056Z,0.60
2023-05-19T10:04:29.167Z,0.60
2023-05-19T10:05:29.093Z,0.60
2023-05-19T10:06:29.088Z,0.59
2023-05-19T10:07:29.108Z,0.60
2023-05-19T10:08:29.098Z,0.59
2023-05-19T10:09:29.133Z,0.59
2023-05-19T10:10:29.127Z,0.58
2023-05-19T10:11:29.132Z,0.59
2023-05-19T10:12:29.141Z,0.59
2023-05-19T10:13:29.147Z,0.58
2023-05-19T10:14:29.138Z,0.58
2023-05-19T10:15:29.149Z,0.58
2023-05-19T10:16:29.203Z,0.57
2023-05-19T10:17:29.198Z,0.57
2023-05-19T10:18:29.184Z,0.58
2023-05-19T10:19:29.420Z,0.57
2023-05-19T10:20:29.204Z,0.57
2023-05-19T10:21:29.208Z,0.57
2023-05-19T10:22:29.233Z,0.56
2023-05-19T10:23:29.245Z,0.57
2023-05-19T10:24:29.272Z,0.56
2023-05-19T10:25:29.292Z,0.56
2023-05-19T10:26:29.296Z,0.55
2023-05-19T10:27:29.335Z,0.55
2023-05-19T10:28:29.346Z,0.55
2023-05-19T10:29:29.351Z,0.54
2023-05-19T10:30:29.400Z,0.54
2023-05-19T10:31:29.420Z,0.53
2023-05-19T10:32:29.610Z,0.53
2023-05-19T10:33:29.411Z,0.52
2023-05-19T10:34:29.452Z,0.53
2023-05-19T10:35:29.438Z,0.52
2023-05-19T10:36:29.468Z,0.52
2023-05-19T10:37:29.481Z,0.52
2023-05-19T10:38:29.474Z,0.51
2023-05-19T10:39:29.454Z,0.51
2023-05-19T10:40:29.480Z,0.52
2023-05-19T10:41:29.487Z,0.51
2023-05-19T10:42:29.513Z,0.50
2023-05-19T10:43:29.507Z,0.50
2023-05-19T10:44:29.562Z,0.51
2023-05-19T10:45:29.575Z,0.50
2023-05-19T10:46:29.549Z,0.50
2023-05-19T10:47:29.593Z,0.50
2023-05-19T10:48:29.593Z,0.51
2023-05-19T10:49:29.578Z,0.50
2023-05-19T10:50:29.547Z,0.51
2023-05-19T10:51:29.567Z,0.51
2023-05-19T10:52:29.614Z,0.50
2023-05-19T10:53:29.589Z,0.51
2023-05-19T10:54:29.591Z,0.51
2023-05-19T10:55:29.605Z,0.51
2023-05-19T10:56:29.604Z,0.52
2023-05-19T10:57:29.639Z,0.51
2023-05-19T10:58:29.600Z,0.51
2023-05-19T10:59:29.728Z,0.50
2023-05-19T11:00:29.630Z,0.51
2023-05-19T11:01:29.677Z,0.51
2023-05-19T11:02:29.652Z,0.51
2023-05-19T11:03:30.949Z,0.50
2023-05-19T11:04:29.721Z,0.50
2023-05-19T11:05:29.695Z,0.51
2023-05-19T11:06:29.654Z,0.51
2023-05-19T11:07:29.675Z,0.51
2023-05-19T11:08:29.689Z,0.51
2023-05-19T11:09:40.117Z,0.51
2023-05-19T11:10:30.680Z,0.51
2023-05-19T11:11:29.699Z,0.51
2023-05-19T11:12:29.690Z,0.51
2023-05-19T11:13:29.698Z,0.51
2023-05-19T11:14:29.701Z,0.51
2023-05-19T11:15:29.711Z,0.51
2023-05-19T11:16:29.767Z,0.52
2023-05-19T11:17:29.762Z,0.50
2023-05-19T11:18:29.739Z,0.50
2023-05-19T11:19:29.850Z,0.50
2023-05-19T11:20:29.745Z,0.51
2023-05-19T11:21:29.826Z,0.50
2023-05-19T11:22:29.747Z,0.50
2023-05-19T11:23:29.832Z,0.50
2023-05-19T11:24:29.768Z,0.51
2023-05-19T11:25:29.874Z,0.51
2023-05-19T11:26:29.814Z,0.50
2023-05-19T11:27:29.804Z,0.51
2023-05-19T11:28:29.797Z,0.50
2023-05-19T11:29:29.827Z,0.51
2023-05-19T11:30:29.820Z,0.52
2023-05-19T11:31:29.877Z,0.51
2023-05-19T11:32:29.949Z,0.52
2023-05-19T11:33:30.013Z,0.52
2023-05-19T11:34:29.824Z,0.53
2023-05-19T11:35:29.879Z,0.51
2023-05-19T11:36:29.828Z,0.50
2023-05-19T11:37:29.872Z,0.51
2023-05-19T11:38:29.894Z,0.50
2023-05-19T11:39:29.898Z,0.51
2023-05-19T11:40:29.884Z,0.50
2023-05-19T11:41:29.872Z,0.51
2023-05-19T11:42:29.912Z,0.50
2023-05-19T11:43:29.897Z,0.50
2023-05-19T11:44:29.893Z,0.50
2023-05-19T11:45:29.936Z,0.51
2023-05-19T11:46:29.945Z,0.51
2023-05-19T11:47:32.037Z,0.50
2023-05-19T11:48:30.993Z,0.50
2023-05-19T11:49:29.954Z,0.50
2023-05-19T11:50:29.990Z,0.51
2023-05-19T11:51:29.997Z,0.51
2023-05-19T11:52:30.047Z,0.51
2023-05-19T11:53:30.016Z,0.51
2023-05-19T11:54:30.062Z,0.51
2023-05-19T11:55:30.074Z,0.51
2023-05-19T11:56:30.075Z,0.51
2023-05-19T11:57:30.072Z,0.51
2023-05-19T11:58:30.067Z,0.52
2023-05-19T11:59:30.087Z,0.52
2023-05-19T12:00:30.091Z,0.51
2023-05-19T12:01:30.151Z,0.51
2023-05-19T12:02:30.225Z,0.52
2023-05-19T12:03:30.571Z,0.52
2023-05-19T12:04:30.422Z,0.51
2023-05-19T12:05:30.758Z,0.52
2023-05-19T12:06:30.567Z,0.51
2023-05-19T12:07:30.578Z,0.51
2023-05-19T12:08:30.641Z,0.51
2023-05-19T12:09:30.668Z,0.51
2023-05-19T12:10:30.711Z,0.52
2023-05-19T12:11:30.771Z,0.52
2023-05-19T12:12:30.841Z,0.52
2023-05-19T12:13:30.872Z,0.53
2023-05-19T12:14:30.971Z,0.52
2023-05-19T12:15:31.464Z,0.52
2023-05-19T12:16:32.596Z,0.52
2023-05-19T12:17:31.186Z,0.52
2023-05-19T12:18:31.204Z,0.52
2023-05-19T12:19:31.311Z,0.52
2023-05-19T12:20:31.313Z,0.53
2023-05-19T12:21:34.238Z,0.52
2023-05-19T12:22:31.366Z,0.52
2023-05-19T12:23:31.372Z,0.52
2023-05-19T12:24:31.416Z,0.53
2023-05-19T12:25:31.749Z,0.53
2023-05-19T12:26:31.448Z,0.54
2023-05-19T12:27:33.047Z,0.53
2023-05-19T12:28:31.421Z,0.53
2023-05-19T12:29:31.415Z,0.53
2023-05-19T12:30:31.779Z,0.53
2023-05-19T12:31:31.470Z,0.53
2023-05-19T12:32:31.529Z,0.55
2023-05-19T12:33:32.898Z,0.53
2023-05-19T12:34:31.489Z,0.53
2023-05-19T12:35:31.491Z,0.53
2023-05-19T12:36:31.500Z,0.53
2023-05-19T12:37:31.504Z,0.53
2023-05-19T12:38:31.508Z,0.53
2023-05-19T12:39:31.527Z,0.52
2023-05-19T12:40:31.820Z,0.54
2023-05-19T12:41:31.531Z,0.53
2023-05-19T12:42:31.631Z,0.53
2023-05-19T12:43:31.541Z,0.53
2023-05-19T12:44:31.600Z,0.53
2023-05-19T12:45:31.646Z,0.51
2023-05-19T12:46:31.582Z,0.52
2023-05-19T12:47:31.640Z,0.52
2023-05-19T12:48:31.585Z,0.52
2023-05-19T12:49:31.622Z,0.52
2023-05-19T12:50:31.791Z,0.53
2023-05-19T12:51:31.705Z,0.52
2023-05-19T12:52:31.688Z,0.52
2023-05-19T12:53:31.697Z,0.52
2023-05-19T12:54:31.716Z,0.52
2023-05-19T12:55:31.708Z,0.52
2023-05-19T12:56:31.704Z,0.51
2023-05-19T12:57:31.723Z,0.51
2023-05-19T12:58:31.743Z,0.50
2023-05-19T12:59:38.265Z,0.50
2023-05-19T13:00:32.965Z,0.51
2023-05-19T13:01:31.818Z,0.51
2023-05-19T13:02:31.868Z,0.51
2023-05-19T13:03:31.949Z,0.50
2023-05-19T13:04:31.746Z,0.51
2023-05-19T13:05:31.748Z,0.51
2023-05-19T13:06:31.750Z,0.51
2023-05-19T13:07:31.777Z,0.51
2023-05-19T13:08:31.767Z,0.52
2023-05-19T13:09:31.783Z,0.51
2023-05-19T13:10:32.140Z,0.53
2023-05-19T13:11:31.784Z,0.54
2023-05-19T13:12:31.798Z,0.55
2023-05-19T13:13:31.782Z,0.56
2023-05-19T13:14:31.781Z,0.55
2023-05-19T13:15:31.821Z,0.55
2023-05-19T13:16:31.849Z,0.55
2023-05-19T13:17:31.832Z,0.54
2023-05-19T13:18:31.788Z,0.55